sensor_id;sensor_type;location;lat;lon;timestamp;P1;durP1;ratioP1;P2;durP2;ratioP2
727;SDS011;347;48.780;9.158;2022-12-18T00:01:25;47.15;;;42.65;;
727;SDS011;347;48.780;9.158;2022-12-18T00:03:52;48.00;;;42.97;;
727;SDS011;347;48.780;9.158;2022-12-18T00:06:20;48.75;;;43.70;;
727;SDS011;347;48.780;9.158;2022-12-18T00:08:46;46.33;;;41.38;;
727;SDS011;347;48.780;9.158;2022-12-18T00:11:12;50.60;;;45.70;;
727;SDS011;347;48.780;9.158;2022-12-18T00:13:39;50.40;;;45.20;;
727;SDS011;347;48.780;9.158;2022-12-18T00:16:06;48.60;;;43.40;;
727;SDS011;347;48.780;9.158;2022-12-18T00:18:34;50.65;;;45.58;;
727;SDS011;347;48.780;9.158;2022-12-18T00:21:00;47.03;;;42.70;;
727;SDS011;347;48.780;9.158;2022-12-18T00:23:28;53.75;;;48.45;;
727;SDS011;347;48.780;9.158;2022-12-18T00:25:54;49.95;;;45.15;;
727;SDS011;347;48.780;9.158;2022-12-18T00:28:20;51.42;;;46.17;;
727;SDS011;347;48.780;9.158;2022-12-18T00:30:45;52.67;;;47.37;;
727;SDS011;347;48.780;9.158;2022-12-18T00:33:11;51.83;;;46.40;;
727;SDS011;347;48.780;9.158;2022-12-18T00:35:36;51.13;;;46.03;;
727;SDS011;347;48.780;9.158;2022-12-18T00:38:02;52.43;;;47.37;;
727;SDS011;347;48.780;9.158;2022-12-18T00:40:28;52.17;;;47.13;;
727;SDS011;347;48.780;9.158;2022-12-18T00:42:53;51.73;;;46.63;;
727;SDS011;347;48.780;9.158;2022-12-18T00:45:22;51.50;;;46.20;;
727;SDS011;347;48.780;9.158;2022-12-18T00:47:51;51.63;;;46.50;;
727;SDS011;347;48.780;9.158;2022-12-18T00:50:17;53.50;;;47.93;;
727;SDS011;347;48.780;9.158;2022-12-18T00:52:43;51.28;;;46.20;;
727;SDS011;347;48.780;9.158;2022-12-18T00:55:09;52.60;;;47.40;;
727;SDS011;347;48.780;9.158;2022-12-18T00:57:35;48.95;;;43.88;;
727;SDS011;347;48.780;9.158;2022-12-18T01:00:01;46.53;;;41.73;;
727;SDS011;347;48.780;9.158;2022-12-18T01:02:28;48.17;;;43.22;;
727;SDS011;347;48.780;9.158;2022-12-18T01:04:54;44.87;;;40.50;;
727;SDS011;347;48.780;9.158;2022-12-18T01:07:22;43.20;;;38.97;;
727;SDS011;347;48.780;9.158;2022-12-18T01:09:56;44.03;;;39.75;;
727;SDS011;347;48.780;9.158;2022-12-18T01:12:21;44.42;;;40.10;;
727;SDS011;347;48.780;9.158;2022-12-18T01:14:51;45.60;;;40.65;;
727;SDS011;347;48.780;9.158;2022-12-18T01:17:17;49.78;;;39.60;;
727;SDS011;347;48.780;9.158;2022-12-18T01:19:48;40.92;;;36.67;;
727;SDS011;347;48.780;9.158;2022-12-18T01:22:14;43.17;;;38.87;;
727;SDS011;347;48.780;9.158;2022-12-18T01:24:42;44.67;;;39.07;;
727;SDS011;347;48.780;9.158;2022-12-18T01:27:21;41.25;;;37.13;;
727;SDS011;347;48.780;9.158;2022-12-18T01:29:59;45.30;;;40.75;;
727;SDS011;347;48.780;9.158;2022-12-18T01:32:29;45.30;;;40.72;;
727;SDS011;347;48.780;9.158;2022-12-18T01:34:58;41.90;;;37.85;;
727;SDS011;347;48.780;9.158;2022-12-18T01:37:24;40.27;;;36.17;;
727;SDS011;347;48.780;9.158;2022-12-18T01:39:49;40.40;;;36.40;;
727;SDS011;347;48.780;9.158;2022-12-18T01:42:17;41.45;;;37.00;;
727;SDS011;347;48.780;9.158;2022-12-18T01:52:56;39.60;;;35.65;;
727;SDS011;347;48.780;9.158;2022-12-18T01:55:35;41.45;;;37.55;;
727;SDS011;347;48.780;9.158;2022-12-18T01:58:04;43.03;;;38.75;;
727;SDS011;347;48.780;9.158;2022-12-18T02:00:31;40.90;;;36.87;;
727;SDS011;347;48.780;9.158;2022-12-18T02:02:56;40.63;;;35.83;;
727;SDS011;347;48.780;9.158;2022-12-18T02:08:27;41.80;;;37.70;;
727;SDS011;347;48.780;9.158;2022-12-18T02:18:50;39.83;;;35.90;;
727;SDS011;347;48.780;9.158;2022-12-18T02:21:51;39.30;;;35.50;;
727;SDS011;347;48.780;9.158;2022-12-18T02:27:26;36.40;;;32.70;;
727;SDS011;347;48.780;9.158;2022-12-18T02:29:54;38.33;;;34.53;;
727;SDS011;347;48.780;9.158;2022-12-18T02:32:26;39.28;;;35.50;;
727;SDS011;347;48.780;9.158;2022-12-18T02:34:55;38.10;;;34.47;;
727;SDS011;347;48.780;9.158;2022-12-18T02:37:23;38.97;;;34.70;;
727;SDS011;347;48.780;9.158;2022-12-18T02:39:51;36.50;;;32.95;;
727;SDS011;347;48.780;9.158;2022-12-18T02:42:19;35.47;;;31.58;;
727;SDS011;347;48.780;9.158;2022-12-18T02:44:46;35.57;;;31.93;;
727;SDS011;347;48.780;9.158;2022-12-18T02:47:14;37.17;;;33.42;;
727;SDS011;347;48.780;9.158;2022-12-18T02:50:02;37.00;;;33.42;;
727;SDS011;347;48.780;9.158;2022-12-18T03:00:41;37.28;;;33.42;;
727;SDS011;347;48.780;9.158;2022-12-18T03:03:32;37.25;;;33.22;;
727;SDS011;347;48.780;9.158;2022-12-18T03:06:14;37.25;;;33.45;;
727;SDS011;347;48.780;9.158;2022-12-18T03:08:44;36.28;;;32.72;;
727;SDS011;347;48.780;9.158;2022-12-18T03:11:13;38.90;;;35.03;;
727;SDS011;347;48.780;9.158;2022-12-18T03:16:05;36.97;;;33.37;;
727;SDS011;347;48.780;9.158;2022-12-18T03:21:07;40.30;;;36.50;;
727;SDS011;347;48.780;9.158;2022-12-18T03:23:37;37.42;;;33.45;;
727;SDS011;347;48.780;9.158;2022-12-18T03:26:10;37.85;;;34.30;;
727;SDS011;347;48.780;9.158;2022-12-18T03:28:42;35.35;;;31.95;;
727;SDS011;347;48.780;9.158;2022-12-18T03:31:12;36.78;;;33.25;;
727;SDS011;347;48.780;9.158;2022-12-18T03:33:41;35.75;;;32.00;;
727;SDS011;347;48.780;9.158;2022-12-18T03:36:16;36.58;;;33.20;;
727;SDS011;347;48.780;9.158;2022-12-18T03:38:42;35.40;;;32.03;;
727;SDS011;347;48.780;9.158;2022-12-18T03:44:14;36.00;;;32.47;;
727;SDS011;347;48.780;9.158;2022-12-18T03:46:55;37.65;;;33.70;;
727;SDS011;347;48.780;9.158;2022-12-18T03:52:34;33.72;;;30.55;;
727;SDS011;347;48.780;9.158;2022-12-18T03:55:03;33.67;;;30.48;;
727;SDS011;347;48.780;9.158;2022-12-18T03:57:30;36.75;;;33.20;;
727;SDS011;347;48.780;9.158;2022-12-18T03:59:58;33.97;;;30.88;;
727;SDS011;347;48.780;9.158;2022-12-18T04:02:33;35.38;;;32.00;;
727;SDS011;347;48.780;9.158;2022-12-18T04:05:00;32.63;;;29.63;;
727;SDS011;347;48.780;9.158;2022-12-18T04:07:29;35.50;;;32.20;;
727;SDS011;347;48.780;9.158;2022-12-18T04:09:56;35.30;;;31.80;;
727;SDS011;347;48.780;9.158;2022-12-18T04:12:24;36.15;;;32.60;;
727;SDS011;347;48.780;9.158;2022-12-18T04:14:53;36.30;;;32.70;;
727;SDS011;347;48.780;9.158;2022-12-18T04:17:19;35.73;;;32.53;;
727;SDS011;347;48.780;9.158;2022-12-18T04:19:44;36.20;;;32.63;;
727;SDS011;347;48.780;9.158;2022-12-18T04:22:10;32.70;;;29.50;;
727;SDS011;347;48.780;9.158;2022-12-18T04:24:36;35.33;;;31.77;;
727;SDS011;347;48.780;9.158;2022-12-18T04:27:02;35.53;;;32.23;;
727;SDS011;347;48.780;9.158;2022-12-18T04:29:27;35.05;;;31.45;;
727;SDS011;347;48.780;9.158;2022-12-18T04:31:53;33.40;;;30.10;;
727;SDS011;347;48.780;9.158;2022-12-18T04:34:19;35.43;;;31.80;;
727;SDS011;347;48.780;9.158;2022-12-18T04:36:45;36.00;;;32.50;;
727;SDS011;347;48.780;9.158;2022-12-18T04:39:10;35.30;;;31.60;;
727;SDS011;347;48.780;9.158;2022-12-18T04:41:36;33.33;;;30.08;;
727;SDS011;347;48.780;9.158;2022-12-18T04:44:02;33.37;;;30.10;;
727;SDS011;347;48.780;9.158;2022-12-18T04:46:28;33.58;;;30.48;;
727;SDS011;347;48.780;9.158;2022-12-18T04:48:54;34.93;;;31.33;;
727;SDS011;347;48.780;9.158;2022-12-18T04:51:19;33.20;;;30.00;;
727;SDS011;347;48.780;9.158;2022-12-18T04:53:45;32.03;;;28.67;;
727;SDS011;347;48.780;9.158;2022-12-18T04:56:11;32.40;;;29.20;;
727;SDS011;347;48.780;9.158;2022-12-18T04:58:40;33.42;;;29.92;;
727;SDS011;347;48.780;9.158;2022-12-18T05:01:06;35.72;;;32.05;;
727;SDS011;347;48.780;9.158;2022-12-18T05:03:33;34.08;;;30.67;;
727;SDS011;347;48.780;9.158;2022-12-18T05:05:59;33.60;;;30.35;;
727;SDS011;347;48.780;9.158;2022-12-18T05:08:24;34.43;;;31.13;;
727;SDS011;347;48.780;9.158;2022-12-18T05:10:57;34.77;;;31.17;;
727;SDS011;347;48.780;9.158;2022-12-18T05:13:34;35.40;;;31.75;;
727;SDS011;347;48.780;9.158;2022-12-18T05:16:00;34.08;;;30.38;;
727;SDS011;347;48.780;9.158;2022-12-18T05:18:27;31.55;;;28.38;;
727;SDS011;347;48.780;9.158;2022-12-18T05:20:53;33.33;;;30.00;;
727;SDS011;347;48.780;9.158;2022-12-18T05:23:19;32.70;;;29.67;;
727;SDS011;347;48.780;9.158;2022-12-18T05:25:50;32.67;;;29.30;;
727;SDS011;347;48.780;9.158;2022-12-18T05:28:19;33.05;;;29.83;;
727;SDS011;347;48.780;9.158;2022-12-18T05:30:49;35.25;;;31.65;;
727;SDS011;347;48.780;9.158;2022-12-18T05:33:16;35.55;;;32.22;;
727;SDS011;347;48.780;9.158;2022-12-18T05:35:42;34.42;;;31.00;;
727;SDS011;347;48.780;9.158;2022-12-18T05:38:08;32.50;;;29.27;;
727;SDS011;347;48.780;9.158;2022-12-18T05:40:33;33.40;;;30.10;;
727;SDS011;347;48.780;9.158;2022-12-18T05:42:59;33.03;;;29.83;;
727;SDS011;347;48.780;9.158;2022-12-18T05:45:25;32.07;;;28.87;;
727;SDS011;347;48.780;9.158;2022-12-18T05:47:50;32.17;;;29.17;;
727;SDS011;347;48.780;9.158;2022-12-18T05:50:16;34.80;;;31.13;;
727;SDS011;347;48.780;9.158;2022-12-18T05:52:41;38.60;;;32.07;;
727;SDS011;347;48.780;9.158;2022-12-18T05:55:07;34.30;;;30.93;;
727;SDS011;347;48.780;9.158;2022-12-18T05:57:33;34.63;;;31.17;;
727;SDS011;347;48.780;9.158;2022-12-18T05:59:58;32.57;;;29.53;;
727;SDS011;347;48.780;9.158;2022-12-18T06:02:24;32.23;;;29.00;;
727;SDS011;347;48.780;9.158;2022-12-18T06:04:49;34.13;;;30.70;;
727;SDS011;347;48.780;9.158;2022-12-18T06:07:15;31.13;;;28.23;;
727;SDS011;347;48.780;9.158;2022-12-18T06:09:40;35.07;;;31.37;;
727;SDS011;347;48.780;9.158;2022-12-18T06:12:06;34.47;;;30.97;;
727;SDS011;347;48.780;9.158;2022-12-18T06:14:32;34.83;;;31.70;;
727;SDS011;347;48.780;9.158;2022-12-18T06:16:57;32.60;;;29.67;;
727;SDS011;347;48.780;9.158;2022-12-18T06:19:23;32.57;;;29.43;;
727;SDS011;347;48.780;9.158;2022-12-18T06:21:49;32.03;;;28.73;;
727;SDS011;347;48.780;9.158;2022-12-18T06:24:15;33.47;;;30.02;;
727;SDS011;347;48.780;9.158;2022-12-18T06:26:40;35.73;;;31.97;;
727;SDS011;347;48.780;9.158;2022-12-18T06:29:06;32.80;;;29.70;;
727;SDS011;347;48.780;9.158;2022-12-18T06:31:32;29.03;;;26.43;;
727;SDS011;347;48.780;9.158;2022-12-18T06:33:57;31.33;;;28.43;;
727;SDS011;347;48.780;9.158;2022-12-18T06:36:23;32.93;;;29.53;;
727;SDS011;347;48.780;9.158;2022-12-18T06:38:49;31.63;;;28.63;;
727;SDS011;347;48.780;9.158;2022-12-18T06:41:16;32.40;;;29.40;;
727;SDS011;347;48.780;9.158;2022-12-18T06:43:43;31.83;;;28.70;;
727;SDS011;347;48.780;9.158;2022-12-18T06:46:09;33.23;;;30.13;;
727;SDS011;347;48.780;9.158;2022-12-18T06:48:36;32.13;;;28.98;;
727;SDS011;347;48.780;9.158;2022-12-18T06:51:02;32.75;;;29.55;;
727;SDS011;347;48.780;9.158;2022-12-18T06:53:28;34.50;;;30.40;;
727;SDS011;347;48.780;9.158;2022-12-18T06:56:04;35.80;;;32.45;;
727;SDS011;347;48.780;9.158;2022-12-18T06:58:31;32.08;;;29.20;;
727;SDS011;347;48.780;9.158;2022-12-18T07:01:01;32.90;;;29.52;;
727;SDS011;347;48.780;9.158;2022-12-18T07:03:28;32.45;;;29.35;;
727;SDS011;347;48.780;9.158;2022-12-18T07:05:53;31.87;;;28.80;;
727;SDS011;347;48.780;9.158;2022-12-18T07:08:19;32.03;;;29.03;;
727;SDS011;347;48.780;9.158;2022-12-18T07:10:44;33.13;;;29.83;;
727;SDS011;347;48.780;9.158;2022-12-18T07:13:10;32.20;;;29.10;;
727;SDS011;347;48.780;9.158;2022-12-18T07:15:37;34.78;;;31.20;;
727;SDS011;347;48.780;9.158;2022-12-18T07:18:02;32.33;;;29.10;;
727;SDS011;347;48.780;9.158;2022-12-18T07:20:28;31.83;;;28.90;;
727;SDS011;347;48.780;9.158;2022-12-18T07:22:54;31.53;;;28.33;;
727;SDS011;347;48.780;9.158;2022-12-18T07:25:19;33.57;;;30.07;;
727;SDS011;347;48.780;9.158;2022-12-18T07:27:45;33.80;;;30.50;;
727;SDS011;347;48.780;9.158;2022-12-18T07:30:11;33.77;;;30.57;;
727;SDS011;347;48.780;9.158;2022-12-18T07:32:36;32.30;;;29.10;;
727;SDS011;347;48.780;9.158;2022-12-18T07:35:02;31.53;;;28.50;;
727;SDS011;347;48.780;9.158;2022-12-18T07:37:28;33.05;;;29.95;;
727;SDS011;347;48.780;9.158;2022-12-18T07:39:54;39.07;;;34.03;;
727;SDS011;347;48.780;9.158;2022-12-18T07:42:19;40.90;;;33.13;;
727;SDS011;347;48.780;9.158;2022-12-18T07:45:00;33.53;;;29.83;;
727;SDS011;347;48.780;9.158;2022-12-18T07:47:27;35.05;;;31.45;;
727;SDS011;347;48.780;9.158;2022-12-18T07:49:53;33.08;;;30.02;;
727;SDS011;347;48.780;9.158;2022-12-18T07:52:19;40.63;;;37.00;;
727;SDS011;347;48.780;9.158;2022-12-18T07:54:44;39.33;;;35.57;;
727;SDS011;347;48.780;9.158;2022-12-18T07:57:10;35.50;;;32.10;;
727;SDS011;347;48.780;9.158;2022-12-18T07:59:36;38.43;;;35.00;;
727;SDS011;347;48.780;9.158;2022-12-18T08:02:02;39.27;;;35.93;;
727;SDS011;347;48.780;9.158;2022-12-18T08:04:28;38.57;;;35.03;;
727;SDS011;347;48.780;9.158;2022-12-18T08:06:53;35.33;;;31.73;;
727;SDS011;347;48.780;9.158;2022-12-18T08:09:19;34.97;;;31.53;;
727;SDS011;347;48.780;9.158;2022-12-18T08:11:45;35.13;;;31.60;;
727;SDS011;347;48.780;9.158;2022-12-18T08:14:10;36.13;;;32.53;;
727;SDS011;347;48.780;9.158;2022-12-18T08:16:36;34.10;;;31.10;;
727;SDS011;347;48.780;9.158;2022-12-18T08:19:02;35.70;;;32.20;;
727;SDS011;347;48.780;9.158;2022-12-18T08:21:28;34.03;;;30.83;;
727;SDS011;347;48.780;9.158;2022-12-18T08:23:57;37.53;;;33.53;;
727;SDS011;347;48.780;9.158;2022-12-18T08:26:25;37.97;;;33.83;;
727;SDS011;347;48.780;9.158;2022-12-18T08:28:54;34.58;;;31.20;;
727;SDS011;347;48.780;9.158;2022-12-18T08:31:21;39.60;;;36.10;;
727;SDS011;347;48.780;9.158;2022-12-18T08:33:50;33.88;;;30.70;;
727;SDS011;347;48.780;9.158;2022-12-18T08:36:17;34.35;;;31.20;;
727;SDS011;347;48.780;9.158;2022-12-18T08:38:44;35.38;;;31.23;;
727;SDS011;347;48.780;9.158;2022-12-18T08:41:11;34.97;;;31.48;;
727;SDS011;347;48.780;9.158;2022-12-18T08:43:38;35.22;;;32.05;;
727;SDS011;347;48.780;9.158;2022-12-18T08:46:23;34.53;;;31.20;;
727;SDS011;347;48.780;9.158;2022-12-18T08:48:51;36.85;;;33.35;;
727;SDS011;347;48.780;9.158;2022-12-18T08:51:17;35.50;;;32.22;;
727;SDS011;347;48.780;9.158;2022-12-18T08:53:44;34.25;;;31.15;;
727;SDS011;347;48.780;9.158;2022-12-18T08:56:10;37.40;;;33.38;;
727;SDS011;347;48.780;9.158;2022-12-18T08:58:37;35.60;;;32.28;;
727;SDS011;347;48.780;9.158;2022-12-18T09:01:03;33.80;;;30.53;;
727;SDS011;347;48.780;9.158;2022-12-18T09:03:31;36.35;;;32.65;;
727;SDS011;347;48.780;9.158;2022-12-18T09:05:57;36.40;;;33.15;;
727;SDS011;347;48.780;9.158;2022-12-18T09:08:23;37.72;;;34.00;;
727;SDS011;347;48.780;9.158;2022-12-18T09:10:49;36.90;;;33.50;;
727;SDS011;347;48.780;9.158;2022-12-18T09:13:16;37.05;;;33.45;;
727;SDS011;347;48.780;9.158;2022-12-18T09:15:46;41.45;;;37.80;;
727;SDS011;347;48.780;9.158;2022-12-18T09:18:15;36.33;;;32.75;;
727;SDS011;347;48.780;9.158;2022-12-18T09:20:41;36.58;;;33.22;;
727;SDS011;347;48.780;9.158;2022-12-18T09:23:08;37.92;;;34.63;;
727;SDS011;347;48.780;9.158;2022-12-18T09:25:34;38.47;;;34.72;;
727;SDS011;347;48.780;9.158;2022-12-18T09:28:05;41.88;;;37.35;;
727;SDS011;347;48.780;9.158;2022-12-18T09:30:36;38.70;;;35.00;;
727;SDS011;347;48.780;9.158;2022-12-18T09:33:03;39.08;;;35.67;;
727;SDS011;347;48.780;9.158;2022-12-18T09:35:28;39.33;;;35.73;;
727;SDS011;347;48.780;9.158;2022-12-18T09:37:54;39.07;;;34.87;;
727;SDS011;347;48.780;9.158;2022-12-18T09:40:21;40.30;;;36.43;;
727;SDS011;347;48.780;9.158;2022-12-18T09:42:52;46.08;;;37.15;;
727;SDS011;347;48.780;9.158;2022-12-18T09:45:22;38.78;;;34.95;;
727;SDS011;347;48.780;9.158;2022-12-18T09:47:49;38.63;;;34.60;;
727;SDS011;347;48.780;9.158;2022-12-18T09:50:24;38.35;;;34.95;;
727;SDS011;347;48.780;9.158;2022-12-18T09:52:56;39.92;;;36.03;;
727;SDS011;347;48.780;9.158;2022-12-18T09:58:06;40.63;;;36.78;;
727;SDS011;347;48.780;9.158;2022-12-18T10:00:36;41.42;;;36.92;;
727;SDS011;347;48.780;9.158;2022-12-18T10:03:09;39.57;;;36.00;;
727;SDS011;347;48.780;9.158;2022-12-18T10:13:57;39.80;;;35.80;;
727;SDS011;347;48.780;9.158;2022-12-18T10:18:40;36.83;;;32.83;;
727;SDS011;347;48.780;9.158;2022-12-18T10:21:32;36.90;;;33.38;;
727;SDS011;347;48.780;9.158;2022-12-18T10:26:44;34.83;;;31.63;;
727;SDS011;347;48.780;9.158;2022-12-18T10:29:12;36.33;;;32.67;;
727;SDS011;347;48.780;9.158;2022-12-18T10:31:39;34.95;;;31.52;;
727;SDS011;347;48.780;9.158;2022-12-18T10:34:09;33.53;;;30.30;;
727;SDS011;347;48.780;9.158;2022-12-18T10:36:38;36.58;;;32.92;;
727;SDS011;347;48.780;9.158;2022-12-18T10:39:23;34.77;;;31.03;;
727;SDS011;347;48.780;9.158;2022-12-18T10:41:51;35.05;;;31.75;;
727;SDS011;347;48.780;9.158;2022-12-18T10:44:29;35.28;;;32.10;;
727;SDS011;347;48.780;9.158;2022-12-18T10:47:02;36.80;;;33.20;;
727;SDS011;347;48.780;9.158;2022-12-18T10:49:30;37.97;;;34.08;;
727;SDS011;347;48.780;9.158;2022-12-18T10:54:50;36.22;;;32.47;;
727;SDS011;347;48.780;9.158;2022-12-18T10:57:31;35.45;;;32.10;;
727;SDS011;347;48.780;9.158;2022-12-18T11:00:01;35.83;;;32.72;;
727;SDS011;347;48.780;9.158;2022-12-18T11:02:45;36.03;;;32.70;;
727;SDS011;347;48.780;9.158;2022-12-18T11:05:25;38.40;;;34.80;;
727;SDS011;347;48.780;9.158;2022-12-18T11:07:59;37.33;;;33.83;;
727;SDS011;347;48.780;9.158;2022-12-18T11:10:35;36.90;;;33.40;;
727;SDS011;347;48.780;9.158;2022-12-18T11:13:22;37.43;;;33.93;;
727;SDS011;347;48.780;9.158;2022-12-18T11:15:49;38.73;;;34.67;;
727;SDS011;347;48.780;9.158;2022-12-18T11:18:25;36.35;;;33.10;;
727;SDS011;347;48.780;9.158;2022-12-18T11:20:52;35.27;;;32.10;;
727;SDS011;347;48.780;9.158;2022-12-18T11:23:21;36.20;;;32.88;;
727;SDS011;347;48.780;9.158;2022-12-18T11:25:51;33.83;;;30.53;;
727;SDS011;347;48.780;9.158;2022-12-18T11:28:29;38.53;;;34.83;;
727;SDS011;347;48.780;9.158;2022-12-18T11:36:48;37.55;;;34.25;;
727;SDS011;347;48.780;9.158;2022-12-18T11:42:17;35.10;;;32.03;;
727;SDS011;347;48.780;9.158;2022-12-18T11:44:59;36.67;;;33.13;;
727;SDS011;347;48.780;9.158;2022-12-18T11:53:15;37.50;;;34.00;;
727;SDS011;347;48.780;9.158;2022-12-18T12:01:36;36.00;;;32.57;;
727;SDS011;347;48.780;9.158;2022-12-18T12:25:37;33.90;;;30.70;;
727;SDS011;347;48.780;9.158;2022-12-18T12:39:29;35.33;;;32.03;;
727;SDS011;347;48.780;9.158;2022-12-18T12:41:58;34.40;;;31.20;;
727;SDS011;347;48.780;9.158;2022-12-18T12:44:43;32.67;;;29.47;;
727;SDS011;347;48.780;9.158;2022-12-18T12:47:18;34.10;;;30.90;;
727;SDS011;347;48.780;9.158;2022-12-18T12:49:50;34.77;;;31.60;;
727;SDS011;347;48.780;9.158;2022-12-18T12:52:34;32.63;;;29.50;;
727;SDS011;347;48.780;9.158;2022-12-18T12:55:04;33.50;;;30.03;;
727;SDS011;347;48.780;9.158;2022-12-18T12:57:38;35.33;;;32.07;;
727;SDS011;347;48.780;9.158;2022-12-18T13:05:48;33.63;;;30.43;;
727;SDS011;347;48.780;9.158;2022-12-18T13:11:53;34.13;;;30.97;;
727;SDS011;347;48.780;9.158;2022-12-18T13:14:32;33.30;;;29.90;;
727;SDS011;347;48.780;9.158;2022-12-18T13:19:50;32.53;;;29.33;;
727;SDS011;347;48.780;9.158;2022-12-18T13:22:30;33.40;;;30.10;;
727;SDS011;347;48.780;9.158;2022-12-18T13:25:27;31.67;;;28.80;;
727;SDS011;347;48.780;9.158;2022-12-18T13:45:49;33.90;;;30.57;;
727;SDS011;347;48.780;9.158;2022-12-18T13:48:24;34.13;;;30.57;;
727;SDS011;347;48.780;9.158;2022-12-18T13:51:05;33.03;;;29.70;;
727;SDS011;347;48.780;9.158;2022-12-18T13:53:34;36.73;;;32.87;;
727;SDS011;347;48.780;9.158;2022-12-18T13:56:25;33.97;;;30.70;;
727;SDS011;347;48.780;9.158;2022-12-18T13:59:03;36.50;;;32.80;;
727;SDS011;347;48.780;9.158;2022-12-18T14:01:32;34.37;;;31.17;;
727;SDS011;347;48.780;9.158;2022-12-18T14:06:49;35.43;;;31.93;;
727;SDS011;347;48.780;9.158;2022-12-18T14:09:19;33.53;;;30.20;;
727;SDS011;347;48.780;9.158;2022-12-18T14:11:51;37.27;;;31.63;;
727;SDS011;347;48.780;9.158;2022-12-18T14:14:38;34.70;;;31.30;;
727;SDS011;347;48.780;9.158;2022-12-18T14:17:10;32.77;;;29.60;;
727;SDS011;347;48.780;9.158;2022-12-18T14:19:40;39.03;;;35.07;;
727;SDS011;347;48.780;9.158;2022-12-18T14:22:17;35.73;;;32.33;;
727;SDS011;347;48.780;9.158;2022-12-18T14:25:05;35.80;;;32.40;;
727;SDS011;347;48.780;9.158;2022-12-18T14:27:36;34.43;;;31.23;;
727;SDS011;347;48.780;9.158;2022-12-18T14:30:16;34.83;;;31.20;;
727;SDS011;347;48.780;9.158;2022-12-18T14:33:01;35.17;;;31.77;;
727;SDS011;347;48.780;9.158;2022-12-18T14:35:26;35.77;;;32.37;;
727;SDS011;347;48.780;9.158;2022-12-18T14:37:53;36.53;;;32.90;;
727;SDS011;347;48.780;9.158;2022-12-18T14:40:18;36.60;;;33.00;;
727;SDS011;347;48.780;9.158;2022-12-18T14:42:44;36.80;;;33.30;;
727;SDS011;347;48.780;9.158;2022-12-18T14:47:59;37.37;;;33.77;;
727;SDS011;347;48.780;9.158;2022-12-18T14:50:25;35.90;;;32.37;;
727;SDS011;347;48.780;9.158;2022-12-18T14:52:51;35.67;;;32.47;;
727;SDS011;347;48.780;9.158;2022-12-18T14:55:17;37.57;;;33.87;;
727;SDS011;347;48.780;9.158;2022-12-18T14:57:44;43.90;;;35.00;;
727;SDS011;347;48.780;9.158;2022-12-18T15:00:20;37.97;;;34.23;;
727;SDS011;347;48.780;9.158;2022-12-18T15:02:57;41.23;;;37.17;;
727;SDS011;347;48.780;9.158;2022-12-18T15:05:30;37.97;;;34.47;;
727;SDS011;347;48.780;9.158;2022-12-18T15:07:57;38.83;;;35.17;;
727;SDS011;347;48.780;9.158;2022-12-18T15:10:25;35.10;;;31.70;;
727;SDS011;347;48.780;9.158;2022-12-18T15:18:01;37.07;;;33.10;;
727;SDS011;347;48.780;9.158;2022-12-18T15:20:54;40.87;;;36.87;;
727;SDS011;347;48.780;9.158;2022-12-18T15:26:11;38.60;;;34.80;;
727;SDS011;347;48.780;9.158;2022-12-18T15:33:40;37.13;;;33.20;;
727;SDS011;347;48.780;9.158;2022-12-18T15:36:12;37.60;;;33.70;;
727;SDS011;347;48.780;9.158;2022-12-18T15:38:39;36.77;;;33.07;;
727;SDS011;347;48.780;9.158;2022-12-18T15:41:06;36.73;;;33.40;;
727;SDS011;347;48.780;9.158;2022-12-18T15:43:38;36.53;;;32.93;;
727;SDS011;347;48.780;9.158;2022-12-18T15:46:04;38.37;;;34.63;;
727;SDS011;347;48.780;9.158;2022-12-18T15:48:36;38.93;;;34.00;;
727;SDS011;347;48.780;9.158;2022-12-18T15:51:07;37.77;;;34.17;;
727;SDS011;347;48.780;9.158;2022-12-18T15:53:45;36.60;;;32.80;;
727;SDS011;347;48.780;9.158;2022-12-18T15:56:16;38.17;;;34.20;;
727;SDS011;347;48.780;9.158;2022-12-18T15:59:01;37.73;;;34.23;;
727;SDS011;347;48.780;9.158;2022-12-18T16:07:21;37.80;;;34.10;;
727;SDS011;347;48.780;9.158;2022-12-18T16:09:47;40.10;;;36.10;;
727;SDS011;347;48.780;9.158;2022-12-18T16:12:21;38.10;;;34.47;;
727;SDS011;347;48.780;9.158;2022-12-18T16:14:49;39.47;;;35.43;;
727;SDS011;347;48.780;9.158;2022-12-18T16:17:15;37.93;;;34.13;;
727;SDS011;347;48.780;9.158;2022-12-18T16:19:40;40.30;;;36.20;;
727;SDS011;347;48.780;9.158;2022-12-18T16:22:08;38.90;;;35.20;;
727;SDS011;347;48.780;9.158;2022-12-18T16:24:48;39.33;;;35.43;;
727;SDS011;347;48.780;9.158;2022-12-18T16:27:15;40.30;;;36.10;;
727;SDS011;347;48.780;9.158;2022-12-18T16:29:41;38.17;;;34.67;;
727;SDS011;347;48.780;9.158;2022-12-18T16:32:08;39.87;;;36.00;;
727;SDS011;347;48.780;9.158;2022-12-18T16:34:38;40.90;;;37.00;;
727;SDS011;347;48.780;9.158;2022-12-18T16:37:05;39.87;;;35.90;;
727;SDS011;347;48.780;9.158;2022-12-18T16:39:32;40.90;;;36.70;;
727;SDS011;347;48.780;9.158;2022-12-18T16:41:59;40.87;;;36.40;;
727;SDS011;347;48.780;9.158;2022-12-18T16:44:46;39.47;;;35.47;;
727;SDS011;347;48.780;9.158;2022-12-18T16:47:13;39.10;;;34.80;;
727;SDS011;347;48.780;9.158;2022-12-18T16:49:40;37.70;;;34.20;;
727;SDS011;347;48.780;9.158;2022-12-18T16:52:07;40.77;;;36.90;;
727;SDS011;347;48.780;9.158;2022-12-18T16:54:33;39.80;;;35.83;;
727;SDS011;347;48.780;9.158;2022-12-18T16:57:00;37.33;;;33.63;;
727;SDS011;347;48.780;9.158;2022-12-18T16:59:26;39.63;;;35.87;;
727;SDS011;347;48.780;9.158;2022-12-18T17:01:53;39.13;;;35.37;;
727;SDS011;347;48.780;9.158;2022-12-18T17:04:19;40.00;;;36.40;;
727;SDS011;347;48.780;9.158;2022-12-18T17:06:45;42.23;;;38.37;;
727;SDS011;347;48.780;9.158;2022-12-18T17:09:16;38.97;;;35.17;;
727;SDS011;347;48.780;9.158;2022-12-18T17:11:49;39.40;;;35.40;;
727;SDS011;347;48.780;9.158;2022-12-18T17:14:16;37.70;;;34.00;;
727;SDS011;347;48.780;9.158;2022-12-18T17:16:44;41.70;;;37.23;;
727;SDS011;347;48.780;9.158;2022-12-18T17:19:10;38.40;;;34.60;;
727;SDS011;347;48.780;9.158;2022-12-18T17:21:37;39.67;;;35.80;;
727;SDS011;347;48.780;9.158;2022-12-18T17:24:03;37.60;;;34.10;;
727;SDS011;347;48.780;9.158;2022-12-18T17:26:29;37.20;;;33.67;;
727;SDS011;347;48.780;9.158;2022-12-18T17:28:55;35.63;;;32.33;;
727;SDS011;347;48.780;9.158;2022-12-18T17:31:22;35.43;;;32.13;;
727;SDS011;347;48.780;9.158;2022-12-18T17:33:49;37.43;;;34.00;;
727;SDS011;347;48.780;9.158;2022-12-18T17:36:16;34.67;;;31.20;;
727;SDS011;347;48.780;9.158;2022-12-18T17:38:42;36.60;;;33.00;;
727;SDS011;347;48.780;9.158;2022-12-18T17:41:14;35.33;;;31.93;;
727;SDS011;347;48.780;9.158;2022-12-18T17:43:40;36.00;;;32.40;;
727;SDS011;347;48.780;9.158;2022-12-18T17:46:12;36.47;;;33.10;;
727;SDS011;347;48.780;9.158;2022-12-18T17:48:39;36.10;;;32.60;;
727;SDS011;347;48.780;9.158;2022-12-18T17:51:08;36.47;;;32.67;;
727;SDS011;347;48.780;9.158;2022-12-18T17:53:35;38.40;;;34.67;;
727;SDS011;347;48.780;9.158;2022-12-18T17:56:01;34.87;;;31.57;;
727;SDS011;347;48.780;9.158;2022-12-18T17:58:29;34.90;;;31.60;;
727;SDS011;347;48.780;9.158;2022-12-18T18:00:56;37.60;;;33.80;;
727;SDS011;347;48.780;9.158;2022-12-18T18:03:21;35.03;;;31.63;;
727;SDS011;347;48.780;9.158;2022-12-18T18:05:47;34.93;;;31.73;;
727;SDS011;347;48.780;9.158;2022-12-18T18:08:13;35.10;;;31.60;;
727;SDS011;347;48.780;9.158;2022-12-18T18:10:39;34.80;;;31.40;;
727;SDS011;347;48.780;9.158;2022-12-18T18:13:06;35.13;;;31.60;;
727;SDS011;347;48.780;9.158;2022-12-18T18:15:59;32.73;;;29.63;;